Terminal Aerodrome Forecast
Issued by NWS Midland/Odessa, TX

Home | Current Version | Previous Version | Text Only | Print | Product List | Glossary On
Versions: 1 2 3 4 5 6 7 8 9 10 11
000
FTUS44 KMAF 271700 RRA
TAFMAF
TAF
KMAF 271744Z 2718/2818 02013KT 6SM -RA BR SCT015 OVC040
      TEMPO 2718/2721 5SM -RASN BR SCT008 OVC012
     FM272100 03010KT P6SM BKN040
     FM280300 VRB03KT P6SM SCT040 BKN080
     FM281000 23005KT P6SM SKC=

USA.gov is the U.S. government's official web portal to all federal, state and local government web resources and services.